createdAt,value
2022-08-17T00:01:35.164Z,19.03
2022-08-17T00:04:19.349Z,19.06
2022-08-17T00:06:47.547Z,18.96
2022-08-17T00:09:19.070Z,18.89
2022-08-17T00:12:35.115Z,18.72
2022-08-17T00:14:34.151Z,18.68
2022-08-17T00:17:00.864Z,18.60
2022-08-17T00:19:27.588Z,18.48
2022-08-17T00:22:30.907Z,18.39
2022-08-17T00:24:44.203Z,18.35
2022-08-17T00:27:12.909Z,18.42
2022-08-17T00:29:39.647Z,18.33
2022-08-17T00:33:12.432Z,18.32
2022-08-17T00:34:53.256Z,18.25
2022-08-17T00:37:20.019Z,18.21
2022-08-17T00:39:46.771Z,18.17
2022-08-17T00:42:15.599Z,18.12
2022-08-17T00:44:43.224Z,18.10
2022-08-17T00:47:16.107Z,18.09
2022-08-17T00:49:44.771Z,18.11
2022-08-17T00:52:16.798Z,18.02
2022-08-17T00:54:47.410Z,17.98
2022-08-17T00:57:23.629Z,17.99
2022-08-17T01:00:02.384Z,18.01
2022-08-17T01:02:34.400Z,18.03
2022-08-17T01:05:09.549Z,18.03
2022-08-17T01:07:37.830Z,18.03
2022-08-17T01:10:06.645Z,18.03
2022-08-17T01:12:35.244Z,18.03
2022-08-17T01:15:01.891Z,18.06
2022-08-17T01:17:28.599Z,18.03
2022-08-17T01:19:55.243Z,18.01
2022-08-17T01:22:23.463Z,18.04
2022-08-17T01:24:53.660Z,18.01
2022-08-17T01:27:21.407Z,18.08
2022-08-17T01:29:52.045Z,18.21
2022-08-17T01:32:19.429Z,18.19
2022-08-17T01:34:50.435Z,18.15
2022-08-17T01:37:20.471Z,18.16
2022-08-17T01:39:53.014Z,18.11
2022-08-17T01:42:24.568Z,18.14
2022-08-17T01:44:55.106Z,18.13
2022-08-17T01:47:21.805Z,18.13
2022-08-17T01:49:49.160Z,18.09
2022-08-17T01:52:16.064Z,18.03
2022-08-17T01:54:45.681Z,17.97
2022-08-17T01:57:12.764Z,17.99
2022-08-17T01:59:40.003Z,17.97
2022-08-17T02:02:08.778Z,17.96
2022-08-17T02:04:35.438Z,17.88
2022-08-17T02:07:02.148Z,17.82
2022-08-17T02:09:30.409Z,17.83
2022-08-17T02:12:00.050Z,17.81
2022-08-17T02:14:46.684Z,17.75
2022-08-17T02:17:13.483Z,17.71
2022-08-17T02:19:44.934Z,17.67
2022-08-17T02:22:14.738Z,17.76
2022-08-17T02:24:59.537Z,17.68
2022-08-17T02:27:28.795Z,17.58
2022-08-17T02:29:55.500Z,17.55
2022-08-17T02:32:28.164Z,17.68
2022-08-17T02:34:59.820Z,17.58
2022-08-17T02:37:30.760Z,17.52
2022-08-17T02:39:58.515Z,17.45
2022-08-17T02:42:28.972Z,17.40
2022-08-17T02:44:55.704Z,17.34
2022-08-17T02:47:22.358Z,17.32
2022-08-17T02:49:54.270Z,17.33
2022-08-17T02:52:42.945Z,17.31
2022-08-17T02:55:17.963Z,17.21
2022-08-17T02:57:45.353Z,17.16
2022-08-17T03:00:21.190Z,17.15
2022-08-17T03:02:51.385Z,17.14
2022-08-17T03:05:21.503Z,17.13
2022-08-17T03:07:48.437Z,17.14
2022-08-17T03:10:15.597Z,17.17
2022-08-17T03:12:44.055Z,17.14
2022-08-17T03:15:28.842Z,17.14
2022-08-17T03:17:56.766Z,17.09
2022-08-17T03:20:24.919Z,17.03
2022-08-17T03:22:53.996Z,17.07
2022-08-17T03:25:24.975Z,17.10
2022-08-17T03:27:52.021Z,17.07
2022-08-17T03:30:18.852Z,17.03
2022-08-17T03:32:49.552Z,16.97
2022-08-17T03:35:19.039Z,16.95
2022-08-17T03:37:46.313Z,16.89
2022-08-17T03:40:13.317Z,16.88
2022-08-17T03:42:41.062Z,16.88
2022-08-17T03:45:15.379Z,16.89
2022-08-17T03:48:00.787Z,16.84
2022-08-17T03:50:45.940Z,16.85
2022-08-17T03:53:35.024Z,16.84
2022-08-17T03:56:21.829Z,16.89
2022-08-17T03:58:49.281Z,16.89
2022-08-17T04:01:17.424Z,16.94
2022-08-17T04:03:44.097Z,16.94
2022-08-17T04:06:10.728Z,17.06
2022-08-17T04:08:37.384Z,17.21
2022-08-17T04:11:04.139Z,17.34
2022-08-17T04:13:30.798Z,17.48
2022-08-17T04:15:59.173Z,17.64
2022-08-17T04:18:26.069Z,17.82
2022-08-17T04:20:52.823Z,17.68
2022-08-17T04:23:19.645Z,17.54
2022-08-17T04:25:49.179Z,17.52
2022-08-17T04:28:17.913Z,17.56
2022-08-17T04:30:45.642Z,17.61
2022-08-17T04:33:14.041Z,17.80
2022-08-17T04:35:44.862Z,17.94
2022-08-17T04:38:16.702Z,18.14
2022-08-17T04:41:02.064Z,18.32
2022-08-17T04:43:29.763Z,18.57
2022-08-17T04:46:05.796Z,18.82
2022-08-17T04:48:37.463Z,19.10
2022-08-17T04:51:13.184Z,19.36
2022-08-17T04:53:41.925Z,19.77
2022-08-17T04:56:11.752Z,20.31
2022-08-17T04:58:48.193Z,20.77
2022-08-17T05:01:23.306Z,21.20
2022-08-17T05:03:56.722Z,21.40
2022-08-17T05:06:34.117Z,21.56
2022-08-17T05:09:00.854Z,21.69
2022-08-17T05:11:28.812Z,21.88
2022-08-17T05:14:03.249Z,22.04
2022-08-17T05:16:30.175Z,22.11
2022-08-17T05:18:58.612Z,22.13
2022-08-17T05:21:32.838Z,21.68
2022-08-17T05:23:59.612Z,21.19
2022-08-17T05:26:29.329Z,21.04
2022-08-17T05:29:03.952Z,20.93
2022-08-17T05:31:30.890Z,21.23
2022-08-17T05:33:58.237Z,21.30
2022-08-17T05:36:38.129Z,21.31
2022-08-17T05:39:15.882Z,21.33
2022-08-17T05:41:43.472Z,21.26
2022-08-17T05:44:10.754Z,21.36
2022-08-17T05:46:40.611Z,21.61
2022-08-17T05:49:08.637Z,21.96
2022-08-17T05:52:03.053Z,22.09
2022-08-17T05:55:03.269Z,22.14
2022-08-17T05:57:35.618Z,22.22
2022-08-17T06:00:20.633Z,22.18
2022-08-17T06:03:11.837Z,22.13
2022-08-17T06:06:14.611Z,21.99
2022-08-17T06:09:07.836Z,22.01
2022-08-17T06:11:53.979Z,22.07
2022-08-17T06:14:49.379Z,21.92
2022-08-17T06:17:19.278Z,22.10
2022-08-17T06:19:51.337Z,22.30
2022-08-17T06:22:34.188Z,22.32
2022-08-17T06:25:04.157Z,22.14
2022-08-17T06:27:36.762Z,22.34
2022-08-17T06:30:12.580Z,22.80
2022-08-17T06:32:43.469Z,23.26
2022-08-17T06:35:20.570Z,23.72
2022-08-17T06:37:53.197Z,24.38
2022-08-17T06:40:28.899Z,24.80
2022-08-17T06:43:33.206Z,25.30
2022-08-17T06:46:02.948Z,25.72
2022-08-17T06:48:47.253Z,25.92
2022-08-17T06:51:25.868Z,26.40
2022-08-17T06:54:17.086Z,25.71
2022-08-17T06:57:07.819Z,25.31
2022-08-17T06:59:55.563Z,25.66
2022-08-17T07:02:52.680Z,25.59
2022-08-17T07:05:24.945Z,25.11
2022-08-17T07:08:11.536Z,25.21
2022-08-17T07:10:43.290Z,25.45
2022-08-17T07:13:22.047Z,25.64
2022-08-17T07:15:51.800Z,25.64
2022-08-17T07:18:26.851Z,26.04
2022-08-17T07:20:57.727Z,26.33
2022-08-17T07:24:00.743Z,26.33
2022-08-17T07:26:27.999Z,26.39
2022-08-17T07:28:57.993Z,26.56
2022-08-17T07:31:26.427Z,26.60
2022-08-17T07:34:06.815Z,26.74
2022-08-17T07:36:34.378Z,26.65
2022-08-17T07:39:02.566Z,26.27
2022-08-17T07:41:57.878Z,26.14
2022-08-17T07:44:22.412Z,26.65
2022-08-17T07:47:10.279Z,26.84
2022-08-17T07:49:39.869Z,26.86
2022-08-17T07:52:24.273Z,26.99
2022-08-17T07:54:59.560Z,27.29
2022-08-17T07:57:35.386Z,27.61
2022-08-17T08:00:02.031Z,27.76
2022-08-17T08:02:41.372Z,27.66
2022-08-17T08:05:29.868Z,27.32
2022-08-17T08:08:42.608Z,27.12
2022-08-17T08:11:15.446Z,27.02
2022-08-17T08:13:45.537Z,27.07
2022-08-17T08:16:38.945Z,27.20
2022-08-17T08:19:05.770Z,27.17
2022-08-17T08:21:51.268Z,27.00
2022-08-17T08:24:33.158Z,27.33
2022-08-17T08:27:21.054Z,27.28
2022-08-17T08:30:21.304Z,27.27
2022-08-17T08:33:08.625Z,27.29
2022-08-17T08:36:12.182Z,27.65
2022-08-17T08:39:04.140Z,27.54
2022-08-17T08:41:36.310Z,27.69
2022-08-17T08:44:21.622Z,27.78
2022-08-17T08:47:30.630Z,27.46
2022-08-17T08:50:37.728Z,27.15
2022-08-17T08:53:14.295Z,27.09
2022-08-17T08:55:53.652Z,26.83
2022-08-17T08:58:32.212Z,26.74
2022-08-17T09:01:17.551Z,26.75
2022-08-17T09:04:24.550Z,26.85
2022-08-17T09:07:00.982Z,26.88
2022-08-17T09:10:22.541Z,26.95
2022-08-17T09:13:11.913Z,27.23
2022-08-17T09:15:57.350Z,27.35
2022-08-17T09:19:00.417Z,27.69
2022-08-17T09:21:33.880Z,27.56
2022-08-17T09:24:12.828Z,27.93
2022-08-17T09:26:50.041Z,28.12
2022-08-17T09:29:17.470Z,28.08
2022-08-17T09:31:50.270Z,27.98
2022-08-17T09:34:22.341Z,28.15
2022-08-17T09:37:23.548Z,28.20
2022-08-17T09:39:55.524Z,28.15
2022-08-17T09:42:33.271Z,28.11
2022-08-17T09:45:36.986Z,28.00
2022-08-17T09:48:13.714Z,28.15
2022-08-17T09:51:05.263Z,27.97
2022-08-17T09:53:33.162Z,27.84
2022-08-17T09:56:25.283Z,27.96
2022-08-17T09:59:38.619Z,28.18
2022-08-17T10:02:25.215Z,28.34
2022-08-17T10:05:09.687Z,28.65
2022-08-17T10:07:46.514Z,28.53
2022-08-17T10:10:25.812Z,28.73
2022-08-17T10:13:00.088Z,28.85
2022-08-17T10:16:25.885Z,28.89
2022-08-17T10:19:03.711Z,29.11
2022-08-17T10:22:00.861Z,29.27
2022-08-17T10:25:21.727Z,29.57
2022-08-17T10:27:52.834Z,29.73
2022-08-17T10:30:22.547Z,29.72
2022-08-17T10:32:50.441Z,29.81
2022-08-17T10:35:25.916Z,29.84
2022-08-17T10:38:17.345Z,29.93
2022-08-17T10:40:49.883Z,30.07
2022-08-17T10:43:31.366Z,30.24
2022-08-17T10:46:10.396Z,30.28
2022-08-17T10:49:11.710Z,30.08
2022-08-17T10:51:40.516Z,30.05
2022-08-17T10:54:27.686Z,29.66
2022-08-17T10:56:56.116Z,29.80
2022-08-17T10:59:35.045Z,30.03
2022-08-17T11:02:12.357Z,29.68
2022-08-17T11:05:00.913Z,29.87
2022-08-17T11:08:05.532Z,29.79
2022-08-17T11:11:06.839Z,29.85
2022-08-17T11:14:11.031Z,30.02
2022-08-17T11:16:37.831Z,29.72
2022-08-17T11:19:10.261Z,30.08
2022-08-17T11:22:05.845Z,30.11
2022-08-17T11:24:47.748Z,29.94
2022-08-17T11:27:26.618Z,30.32
2022-08-17T11:30:01.519Z,30.31
2022-08-17T11:32:47.154Z,30.02
2022-08-17T11:35:30.304Z,29.73
2022-08-17T11:38:18.726Z,29.67
2022-08-17T11:41:12.821Z,29.77
2022-08-17T11:44:12.584Z,29.79
2022-08-17T11:47:16.664Z,29.61
2022-08-17T11:50:16.748Z,29.67
2022-08-17T11:52:49.114Z,29.48
2022-08-17T11:55:40.719Z,29.56
2022-08-17T11:58:37.362Z,29.55
2022-08-17T12:01:10.077Z,29.56
2022-08-17T12:03:55.653Z,29.56
2022-08-17T12:06:34.447Z,29.35
2022-08-17T12:09:16.237Z,29.20
2022-08-17T12:12:13.163Z,29.20
2022-08-17T12:15:09.008Z,29.27
2022-08-17T12:17:40.691Z,29.25
2022-08-17T12:20:24.987Z,29.37
2022-08-17T12:22:54.856Z,29.11
2022-08-17T12:25:33.022Z,29.08
2022-08-17T12:28:05.990Z,29.28
2022-08-17T12:30:34.178Z,29.21
2022-08-17T12:33:00.839Z,29.46
2022-08-17T12:35:36.666Z,29.72
2022-08-17T12:38:32.163Z,29.86
2022-08-17T12:40:58.017Z,30.32
2022-08-17T12:43:27.874Z,30.38
2022-08-17T12:46:01.255Z,30.60
2022-08-17T12:48:59.867Z,30.72
2022-08-17T12:51:28.987Z,30.82
2022-08-17T12:53:55.932Z,30.48
2022-08-17T12:56:27.009Z,30.60
2022-08-17T12:58:56.593Z,30.33
2022-08-17T13:01:24.908Z,30.33
2022-08-17T13:03:54.200Z,30.31
2022-08-17T13:06:33.120Z,30.44
2022-08-17T13:09:36.107Z,30.27
2022-08-17T13:12:07.682Z,30.03
2022-08-17T13:14:35.149Z,29.74
2022-08-17T13:17:13.302Z,29.61
2022-08-17T13:19:52.124Z,29.66
2022-08-17T13:22:23.084Z,29.37
2022-08-17T13:24:55.862Z,29.18
2022-08-17T13:27:25.302Z,29.33
2022-08-17T13:29:55.418Z,29.37
2022-08-17T13:32:43.690Z,29.17
2022-08-17T13:35:39.210Z,29.21
2022-08-17T13:38:29.503Z,29.30
2022-08-17T13:40:56.183Z,29.05
2022-08-17T13:43:40.798Z,28.94
2022-08-17T13:46:10.649Z,29.02
2022-08-17T13:48:37.416Z,28.88
2022-08-17T13:51:12.715Z,29.00
2022-08-17T13:53:40.201Z,28.87
2022-08-17T13:56:33.430Z,29.08
2022-08-17T13:59:03.097Z,29.11
2022-08-17T14:01:29.775Z,29.12
2022-08-17T14:03:57.202Z,29.14
2022-08-17T14:06:52.414Z,28.99
2022-08-17T14:09:16.300Z,28.94
2022-08-17T14:11:44.976Z,29.01
2022-08-17T14:14:13.784Z,28.82
2022-08-17T14:16:41.788Z,28.98
2022-08-17T14:19:13.167Z,28.91
2022-08-17T14:21:42.734Z,29.08
2022-08-17T14:24:20.827Z,29.08
2022-08-17T14:26:52.890Z,29.20
2022-08-17T14:29:24.949Z,29.13
2022-08-17T14:31:54.442Z,29.06
2022-08-17T14:34:22.832Z,29.06
2022-08-17T14:36:49.538Z,29.22
2022-08-17T14:39:17.429Z,29.43
2022-08-17T14:41:44.545Z,29.47
2022-08-17T14:44:12.490Z,29.78
2022-08-17T14:46:40.904Z,29.65
2022-08-17T14:49:08.881Z,29.79
2022-08-17T14:51:44.182Z,29.78
2022-08-17T14:54:33.026Z,29.86
2022-08-17T14:57:23.413Z,29.57
2022-08-17T14:59:47.171Z,29.66
2022-08-17T15:02:13.787Z,29.47
2022-08-17T15:04:45.408Z,29.31
2022-08-17T15:07:12.405Z,29.37
2022-08-17T15:09:39.146Z,29.42
2022-08-17T15:12:08.555Z,29.24
2022-08-17T15:14:35.911Z,29.31
2022-08-17T15:17:05.664Z,29.40
2022-08-17T15:19:32.309Z,29.46
2022-08-17T15:21:58.964Z,29.15
2022-08-17T15:24:25.739Z,28.87
2022-08-17T15:26:52.417Z,28.89
2022-08-17T15:29:19.051Z,28.99
2022-08-17T15:31:45.780Z,29.03
2022-08-17T15:34:12.540Z,29.14
2022-08-17T15:36:47.920Z,29.06
2022-08-17T15:39:19.758Z,29.19
2022-08-17T15:41:47.322Z,29.43
2022-08-17T15:44:32.445Z,29.51
2022-08-17T15:47:02.123Z,29.45
2022-08-17T15:49:30.575Z,29.12
2022-08-17T15:51:57.287Z,28.18
2022-08-17T15:54:23.972Z,27.76
2022-08-17T15:56:50.873Z,27.70
2022-08-17T15:59:17.830Z,27.77
2022-08-17T16:03:04.671Z,27.96
2022-08-17T16:04:33.886Z,27.90
2022-08-17T16:07:00.627Z,28.04
2022-08-17T16:09:28.191Z,28.02
2022-08-17T16:11:56.127Z,27.81
2022-08-17T16:14:35.038Z,27.69
2022-08-17T16:17:03.170Z,27.60
2022-08-17T16:19:29.922Z,27.54
2022-08-17T16:21:56.616Z,27.51
2022-08-17T16:24:23.224Z,27.49
2022-08-17T16:26:49.908Z,27.41
2022-08-17T16:29:16.659Z,27.32
2022-08-17T16:31:43.380Z,27.18
2022-08-17T16:34:17.069Z,27.04
2022-08-17T16:36:55.433Z,26.82
2022-08-17T16:39:28.959Z,26.63
2022-08-17T16:41:56.612Z,26.60
2022-08-17T16:44:23.674Z,26.53
2022-08-17T16:46:50.534Z,26.36
2022-08-17T16:49:24.423Z,26.26
2022-08-17T16:52:06.333Z,26.19
2022-08-17T16:54:33.477Z,26.06
2022-08-17T16:57:00.249Z,25.90
2022-08-17T16:59:31.818Z,25.74
2022-08-17T17:02:11.005Z,25.37
2022-08-17T17:04:50.433Z,25.20
2022-08-17T17:07:38.383Z,24.95
2022-08-17T17:10:12.488Z,24.77
2022-08-17T17:13:02.606Z,24.63
2022-08-17T17:15:39.633Z,24.43
2022-08-17T17:18:12.126Z,24.20
2022-08-17T17:20:47.483Z,24.07
2022-08-17T17:23:14.313Z,24.12
2022-08-17T17:25:48.908Z,24.07
2022-08-17T17:28:53.316Z,24.06
2022-08-17T17:31:23.817Z,24.27
2022-08-17T17:33:54.582Z,24.55
2022-08-17T17:36:51.786Z,24.69
2022-08-17T17:39:51.321Z,24.79
2022-08-17T17:42:24.430Z,24.95
2022-08-17T17:45:16.765Z,24.83
2022-08-17T17:47:46.980Z,24.92
2022-08-17T17:50:16.749Z,24.96
2022-08-17T17:52:49.369Z,24.94
2022-08-17T17:55:34.597Z,24.89
2022-08-17T17:58:07.261Z,24.78
2022-08-17T18:00:49.141Z,24.70
2022-08-17T18:03:27.978Z,24.69
2022-08-17T18:06:24.214Z,24.39
2022-08-17T18:08:57.223Z,24.17
2022-08-17T18:11:39.827Z,23.97
2022-08-17T18:14:25.286Z,23.77
2022-08-17T18:16:55.931Z,23.61
2022-08-17T18:19:30.650Z,23.46
2022-08-17T18:22:14.033Z,23.25
2022-08-17T18:24:44.729Z,23.10
2022-08-17T18:27:25.583Z,22.94
2022-08-17T18:29:54.583Z,22.72
2022-08-17T18:32:33.673Z,22.65
2022-08-17T18:35:09.390Z,22.60
2022-08-17T18:37:46.798Z,22.57
2022-08-17T18:40:17.826Z,22.55
2022-08-17T18:42:50.237Z,22.56
2022-08-17T18:45:31.029Z,22.59
2022-08-17T18:47:57.847Z,22.68
2022-08-17T18:50:28.390Z,22.79
2022-08-17T18:53:20.692Z,23.02
2022-08-17T18:56:16.400Z,22.94
2022-08-17T18:58:50.661Z,22.86
2022-08-17T19:01:20.003Z,22.81
2022-08-17T19:03:46.887Z,22.76
2022-08-17T19:06:20.332Z,22.76
2022-08-17T19:08:47.035Z,22.75
2022-08-17T19:11:32.378Z,22.64
2022-08-17T19:14:04.236Z,22.96
2022-08-17T19:16:59.007Z,23.25
2022-08-17T19:19:32.457Z,23.14
2022-08-17T19:22:27.011Z,23.30
2022-08-17T19:25:16.061Z,23.17
2022-08-17T19:27:57.411Z,23.14
2022-08-17T19:30:24.911Z,23.07
2022-08-17T19:32:53.046Z,22.96
2022-08-17T19:35:20.743Z,22.83
2022-08-17T19:38:19.901Z,22.50
2022-08-17T19:40:54.480Z,22.25
2022-08-17T19:43:25.562Z,22.12
2022-08-17T19:46:14.962Z,22.01
2022-08-17T19:49:07.462Z,21.93
2022-08-17T19:51:51.190Z,21.81
2022-08-17T19:54:44.144Z,21.76
2022-08-17T19:57:18.491Z,22.00
2022-08-17T19:59:54.265Z,22.28
2022-08-17T20:02:26.940Z,22.24
2022-08-17T20:04:56.928Z,22.10
2022-08-17T20:07:28.728Z,21.98
2022-08-17T20:10:04.032Z,21.99
2022-08-17T20:12:36.759Z,21.93
2022-08-17T20:15:10.616Z,21.82
2022-08-17T20:17:44.061Z,22.07
2022-08-17T20:20:38.731Z,22.07
2022-08-17T20:23:26.413Z,21.94
2022-08-17T20:25:52.953Z,21.86
2022-08-17T20:28:23.874Z,22.02
2022-08-17T20:30:51.280Z,21.99
2022-08-17T20:33:28.949Z,22.14
2022-08-17T20:36:04.935Z,22.26
2022-08-17T20:38:40.162Z,22.38
2022-08-17T20:41:13.875Z,22.37
2022-08-17T20:43:40.580Z,22.33
2022-08-17T20:46:20.520Z,22.25
2022-08-17T20:48:51.009Z,22.15
2022-08-17T20:51:17.986Z,21.97
2022-08-17T20:53:47.603Z,21.92
2022-08-17T20:56:43.646Z,21.70
2022-08-17T20:59:24.071Z,21.45
2022-08-17T21:02:08.933Z,21.31
2022-08-17T21:04:49.873Z,21.19
2022-08-17T21:07:33.149Z,21.03
2022-08-17T21:10:17.261Z,20.87
2022-08-17T21:12:49.716Z,20.75
2022-08-17T21:15:53.969Z,20.62
2022-08-17T21:18:40.853Z,20.77
2022-08-17T21:21:29.245Z,21.08
2022-08-17T21:24:04.889Z,21.18
2022-08-17T21:26:50.276Z,21.23
2022-08-17T21:29:32.368Z,21.18
2022-08-17T21:32:03.514Z,21.11
2022-08-17T21:34:38.044Z,21.21
2022-08-17T21:37:20.030Z,21.20
2022-08-17T21:39:51.045Z,21.11
2022-08-17T21:42:23.220Z,21.05
2022-08-17T21:44:52.552Z,20.92
2022-08-17T21:47:23.653Z,20.95
2022-08-17T21:49:51.687Z,20.98
2022-08-17T21:52:22.806Z,20.89
2022-08-17T21:54:52.272Z,20.90
2022-08-17T21:57:27.480Z,20.89
2022-08-17T21:59:57.481Z,20.78
2022-08-17T22:02:30.281Z,20.72
2022-08-17T22:05:00.044Z,20.72
2022-08-17T22:07:34.882Z,20.65
2022-08-17T22:10:01.559Z,20.57
2022-08-17T22:12:28.297Z,20.46
2022-08-17T22:15:00.909Z,20.36
2022-08-17T22:17:39.541Z,20.32
2022-08-17T22:20:07.057Z,20.25
2022-08-17T22:23:05.671Z,20.25
2022-08-17T22:25:36.299Z,20.24
2022-08-17T22:28:08.227Z,20.22
2022-08-17T22:30:43.838Z,20.23
2022-08-17T22:33:29.354Z,20.21
2022-08-17T22:36:14.424Z,20.17
2022-08-17T22:38:43.673Z,20.15
2022-08-17T22:41:16.620Z,20.15
2022-08-17T22:43:44.822Z,20.10
2022-08-17T22:46:12.206Z,20.04
2022-08-17T22:48:50.111Z,20.15
2022-08-17T22:51:24.384Z,20.12
2022-08-17T22:54:14.311Z,19.97
2022-08-17T22:57:18.893Z,19.95
2022-08-17T22:59:55.767Z,19.89
2022-08-17T23:02:32.400Z,19.88
2022-08-17T23:05:14.207Z,19.84
2022-08-17T23:07:42.510Z,19.79
2022-08-17T23:10:11.596Z,19.83
2022-08-17T23:12:39.609Z,19.84
2022-08-17T23:15:17.483Z,19.83
2022-08-17T23:17:45.495Z,19.75
2022-08-17T23:20:13.943Z,19.74
2022-08-17T23:22:51.855Z,19.71
2022-08-17T23:25:29.793Z,19.67
2022-08-17T23:27:58.321Z,19.79
2022-08-17T23:30:25.703Z,19.80
2022-08-17T23:32:54.185Z,19.81
2022-08-17T23:35:39.289Z,19.80
2022-08-17T23:38:09.730Z,19.85
2022-08-17T23:40:37.722Z,19.99
2022-08-17T23:43:11.518Z,19.88
2022-08-17T23:45:53.975Z,19.77
2022-08-17T23:48:27.797Z,19.76
2022-08-17T23:51:05.903Z,19.66
2022-08-17T23:53:34.847Z,19.62
2022-08-17T23:56:03.924Z,19.56
2022-08-17T23:58:38.422Z,19.45
